Close Search

Base
°C
Summit
°C

WEATHER AT A GLANCE

Image Slideshow

RMR Village

Revelstoke Mountain Resort -  RMR Village Webcam

Top of The Stoke

Revelstoke Mountain Resort -  Top of The Stoke Webcam

Top of Stellar

Revelstoke Mountain Resort -  Top of Stellar Webcam

Mackenzie Outpost

Revelstoke Mountain Resort -  Mackenzie Outpost Webcam

Ripper

Revelstoke Mountain Resort -  Ripper Webcam
Base
°C
Summit
°C
Wind (Summit)
km/h

Today's Forecast

Subpeak Weather

Time Avg. Air Temp Dew Point Avg. Rel Humidity Avg. 2 Min Wind Speed Max Gust Velocity MGV Time MGV Direction Avg. Spot Wind Velocity
2026-05-07 12:20:003° C-3° C67%5 km/h10 km/h12:16:00NW5 km/h
11:20:003° C0° C83%4 km/h6 km/h11:20:00N4 km/h
10:20:001° C0° C92%3 km/h5 km/h10:20:00NE4 km/h
09:20:001° C-0° C93%7 km/h9 km/h09:20:00NW6 km/h
08:20:000° C0° C100%10 km/h11 km/h08:18:00NW9 km/h
07:20:001° C1° C100%15 km/h18 km/h07:18:00NW14 km/h
06:20:001° C1° C100%17 km/h22 km/h06:16:00NW19 km/h
05:20:002° C2° C100%11 km/h22 km/h05:16:00W14 km/h
04:20:002° C2° C100%17 km/h21 km/h04:20:00W17 km/h
03:20:002° C2° C100%22 km/h25 km/h03:20:00W22 km/h
02:20:002° C2° C100%21 km/h27 km/h02:18:00W21 km/h
01:20:003° C1° C88%18 km/h25 km/h01:17:00W21 km/h
00:20:004° C1° C81%21 km/h24 km/h00:16:00W20 km/h
23:20:004° C0° C78%26 km/h30 km/h23:19:00W23 km/h
22:20:004° C0° C78%10 km/h17 km/h22:18:00W12 km/h
21:20:004° C1° C80%15 km/h16 km/h21:20:00SW15 km/h
20:20:002° C2° C100%17 km/h36 km/h20:18:00NE24 km/h
19:20:006° C-1° C60%16 km/h30 km/h19:16:00W16 km/h
18:20:008° C-1° C53%1 km/h4 km/h18:16:00NE1 km/h
17:20:008° C-0° C56%16 km/h21 km/h17:19:00SW13 km/h
16:20:007° C-0° C58%21 km/h29 km/h16:18:00W21 km/h
15:20:007° C-1° C57%14 km/h18 km/h15:19:00W13 km/h
14:20:006° C-0° C62%18 km/h21 km/h14:17:00SW18 km/h
13:20:006° C-0° C64%14 km/h19 km/h13:20:00SW12 km/h

Time Avg. Air Temp Dew Point Avg. Rel Humidity Avg. 2 Min Wind Speed Max Gust Velocity MGV Time MGV Direction Avg. Spot Wind Velocity
2026-05-07 12:20:003° C-3° C67%5 km/h10 km/h12:16:00NW5 km/h
12:15:003° C-3° C69%5 km/h10 km/h12:15:00NW6 km/h
12:10:003° C-2° C71%8 km/h17 km/h12:08:00W9 km/h
12:05:003° C-2° C65%9 km/h12 km/h12:04:00W7 km/h
12:00:003° C-2° C68%6 km/h11 km/h11:56:00W6 km/h
11:55:003° C-1° C71%4 km/h8 km/h11:52:00NW4 km/h
11:50:004° C-1° C73%2 km/h8 km/h11:48:00NW2 km/h
11:45:003° C-0° C75%1 km/h3 km/h11:44:00NW1 km/h
11:40:003° C0° C78%1 km/h5 km/h11:37:00NW2 km/h
11:35:003° C-1° C76%0 km/h4 km/h11:31:00NE1 km/h
11:30:002° C-2° C76%5 km/h11 km/h11:26:00NE6 km/h
11:25:003° C-1° C81%9 km/h10 km/h11:24:00NE8 km/h
11:20:003° C0° C83%4 km/h6 km/h11:20:00N4 km/h

We value your privacy
We use cookies to enhance your browsing experience, serve personalized ads or content, and analyze our traffic. By clicking "Allow Cookies", you consent to our use of cookies. For additional details view our Privacy Policy.
Cookie preferences

You can control how your data is used on our website. Learn more below about the cookies we use by reviewing our Privacy Policy.

Your cookie preferences have been saved.